Security, Colorado
Current Conditions -  °F | °C
As of 3:54 PM on Saturday 25 Oct 2014 (Local Time) from KCOS Reporting Station
Few Clouds Few Clouds  
Wind Chill: 77°   Ceiling: Unl
Heat Index: 77°   Visibility: 10mi
Dew Point: 19°   Wind: 13mph
Humidity: 11%   Direction: 190°S
Pressure: 30.17"   Gusts: NA
Location:  38.7421°N, 104.639°W
Report Text: KCOS 252154Z 19011KT 10SM FEW250 25/M07 A3017 RMK AO2 SLP143 T02501072
Loading
Personal Weather Stations






























Interactive Weather Map
Tropical Storm Tracking
New forecast layout! Learn more

10-Day Weather Forecast

Advertisements
Track Severe Weather on mobile